Nearby METAR Reports

 

KECP - Panama City, Florida, USA
Distance from station: WNW 11mi, 18km
Updated: Thu, 29-Feb-2024 11:53pm CST
Clear
Clear
 Wind from E
Wind: E 7 mph , 11 km/h
Temperature: 61°F , 16°C
Dew Point: 43°F , 6°C
Humidity: 52%
Barometer: 30.23 inHg , 1023.7 hPa
Clouds: Clear
Visibility: 10 miles , 16 km
2024/03/01 05:53 KECP 010553Z AUTO 08006KT 10SM CLR 16/06 A3023 RMK AO1 SLP249 T01560056 10167 20144 401940106 55007
KPAM - Tyndall Afb, Florida, USA
Distance from station: S 17mi, 28km
Updated: Thu, 29-Feb-2024 11:55pm CST
Partly cloudy
Partly cloudy
 Wind from ESE
Wind: ESE 9 mph , 15 km/h
Temperature: 61°F , 16°C
Dew Point: 50°F , 10°C
Humidity: 68%
Barometer: 30.23 inHg , 1023.7 hPa
Clouds: Partly cloudy
Visibility: 10 miles , 16 km
Cloud details: Partly cloudy 18000 ft
2024/03/01 05:55 KPAM 010555Z 12008KT 10SM SCT180 16/10 A3023 RMK AO2A SLP240 60000 T01640103 10178 20152 401980113 56011 FZRANO $
 
KTDR - Tyndall Drone, Florida, USA
Distance from station: SSE 19mi, 31km
Updated: Thu, 29-Feb-2024 11:55pm CST
Overcast
Overcast
 Wind from ESE
Wind: ESE 9 mph , 15 km/h
Temperature: 63°F , 17°C
Dew Point: 54°F , 12°C
Humidity: 73%
Barometer: 30.20 inHg , 1022.7 hPa
Clouds: Overcast
Visibility: 10 miles , 16 km
Cloud details: Overcast 19000 ft
2024/03/01 05:55 KTDR 010555Z AUTO 11008KT 10SM OVC190 17/12 A3020 RMK AO2 SLP230 60000 T01710118 10192 20155 402130112 56010 $
KBCR - Bonifay Tri-Cty, Florida, USA
Distance from station: N 37mi, 60km
Updated: Thu, 29-Feb-2024 11:58pm CST
Clear
Clear
 Wind from E
Wind: E 6 mph , 9 km/h
Temperature: 57°F , 14°C
Dew Point: 37°F , 3°C
Humidity: 48%
Barometer: 30.25 inHg , 1024.4 hPa
Clouds: Clear
Visibility: 10 miles , 16 km
2024/03/01 05:58 KBCR 010558Z AUTO 09005KT 10SM CLR 14/03 A3025 RMK AO2 SLP227 T01390028 10156 20139 56014
 
K54J - De Funiak Sprngs, Florida, USA
Distance from station: NW 43mi, 69km
Updated: Fri, 01-Mar-2024 12:35am CST
Clear
Clear
 Wind from E
Wind: E 7 mph , 11 km/h
Temperature: 55°F , 13°C
Dew Point: 36°F , 2°C
Humidity: 47%
Barometer: 30.20 inHg , 1022.7 hPa
Clouds: Clear
Visibility: 10 miles , 16 km
2024/03/01 06:35 K54J 010635Z AUTO 08006KT 10SM CLR 13/02 A3020 RMK AO2 T01310024
KMAI - Marianna, Florida, USA
Distance from station: NE 44mi, 71km
Updated: Thu, 29-Feb-2024 11:53pm CST
Clear
Clear
 Wind from E
Wind: E 9 mph , 15 km/h
Temperature: 57°F , 14°C
Dew Point: 41°F , 5°C
Humidity: 55%
Barometer: 30.25 inHg , 1024.4 hPa
Clouds: Clear
Visibility: 10 miles , 16 km
2024/03/01 05:53 KMAI 010553Z AUTO 08008KT 10SM CLR 14/05 A3025 RMK AO2 SLP241 T01390050 10156 20139 401670089 56017